Time;durP1;ratioP1;P1;durP2;ratioP2;P2;SDS_P1;SDS_P2;PMS_P1;PMS_P2;Temp;Humidity;BMP_temperature;BMP_pressure;BME280_temperature;BME280_humidity;BME280_pressure;Samples;Min_cycle;Max_cycle;Signal;HPM_P1;HPM_P2
2023/04/05 00:01:00;;;;;;;6.18;3.40;;;2.00;99.90;;;;;;5013712;28;20414;-76
2023/04/05 00:03:25;;;;;;;11.20;4.95;;;2.00;99.90;;;;;;5031801;28;20042;-75
2023/04/05 00:05:53;;;;;;;7.15;4.35;;;2.00;99.90;;;;;;5014499;28;20048;-76
2023/04/05 00:08:27;;;;;;;9.68;4.07;;;2.00;99.90;;;;;;5030820;28;20045;-76
2023/04/05 00:10:53;;;;;;;10.35;4.18;;;1.90;99.90;;;;;;5014514;28;20083;-76
2023/04/05 00:13:20;;;;;;;11.95;4.15;;;1.90;99.90;;;;;;5014036;28;20111;-76
2023/04/05 00:15:47;;;;;;;8.73;4.38;;;1.90;99.90;;;;;;4997368;28;20040;-76
2023/04/05 00:18:20;;;;;;;9.48;4.25;;;1.90;99.90;;;;;;4997909;28;20486;-76
2023/04/05 00:20:53;;;;;;;8.27;4.13;;;1.80;99.90;;;;;;5014631;28;20080;-76
2023/04/05 00:23:20;;;;;;;9.60;4.00;;;1.80;99.90;;;;;;5013162;28;20585;-77
2023/04/05 00:25:46;;;;;;;10.60;4.75;;;1.80;99.90;;;;;;5032116;28;20457;-76
2023/04/05 00:28:12;;;;;;;8.82;4.78;;;1.80;99.90;;;;;;5051539;28;20056;-76
2023/04/05 00:30:38;;;;;;;11.63;4.95;;;1.70;99.90;;;;;;5050871;28;20043;-76
2023/04/05 00:33:04;;;;;;;10.35;4.60;;;1.70;99.90;;;;;;5033673;28;20056;-76
2023/04/05 00:35:30;;;;;;;10.48;4.50;;;1.70;99.90;;;;;;5033988;28;20041;-76
2023/04/05 00:37:56;;;;;;;8.63;4.00;;;1.60;99.90;;;;;;5017006;28;20504;-76
2023/04/05 00:40:22;;;;;;;8.40;4.47;;;1.60;99.90;;;;;;5051011;28;20045;-76
2023/04/05 00:42:48;;;;;;;9.10;4.30;;;1.60;99.90;;;;;;5033141;28;20083;-76
2023/04/05 00:45:14;;;;;;;7.55;4.10;;;1.50;99.90;;;;;;5036083;28;20498;-76
2023/04/05 00:47:41;;;;;;;10.80;4.10;;;1.50;99.90;;;;;;5055557;28;20521;-77
2023/04/05 00:50:08;;;;;;;11.48;5.13;;;1.50;99.90;;;;;;5036708;28;20046;-76
2023/04/05 00:52:36;;;;;;;10.15;5.00;;;1.40;99.90;;;;;;5037452;28;20065;-77
2023/04/05 00:55:04;;;;;;;8.25;5.00;;;1.30;99.90;;;;;;5021180;28;20424;-77
2023/04/05 00:57:31;;;;;;;8.93;4.93;;;1.30;99.90;;;;;;5054148;28;20037;-76
2023/04/05 01:00:06;;;;;;;9.15;4.93;;;1.30;99.90;;;;;;5037463;28;20041;-77
2023/04/05 01:02:38;;;;;;;8.25;4.65;;;1.20;99.90;;;;;;5020468;28;20037;-77
2023/04/05 01:05:16;;;;;;;8.93;4.15;;;1.20;99.90;;;;;;5019773;28;20029;-77
2023/04/05 01:07:58;;;;;;;10.45;4.63;;;1.20;99.90;;;;;;5055366;28;20127;-76
2023/04/05 01:10:36;;;;;;;9.32;4.95;;;1.10;99.90;;;;;;5036947;28;20078;-77
2023/04/05 01:13:03;;;;;;;9.65;4.82;;;1.10;99.90;;;;;;5036510;28;20070;-77
2023/04/05 01:15:28;;;;;;;10.57;4.55;;;1.10;99.90;;;;;;5020762;28;20474;-77
2023/04/05 01:17:56;;;;;;;8.00;3.88;;;1.00;99.90;;;;;;5020563;28;20127;-77
2023/04/05 01:20:24;;;;;;;11.05;4.60;;;1.00;99.90;;;;;;5019184;28;20485;-77
2023/04/05 01:23:15;;;;;;;8.13;4.57;;;1.00;99.90;;;;;;5020754;28;20095;-77
2023/04/05 01:26:02;;;;;;;7.57;4.13;;;1.00;99.90;;;;;;5054345;28;20044;-76
2023/04/05 01:28:56;;;;;;;11.23;4.03;;;1.00;99.90;;;;;;5036853;28;20053;-77
2023/04/05 01:31:53;;;;;;;9.90;4.53;;;0.90;99.90;;;;;;5018218;28;20049;-77
2023/04/05 01:34:24;;;;;;;8.80;4.70;;;0.90;99.90;;;;;;5053164;28;20037;-77
2023/04/05 01:37:06;;;;;;;9.15;4.05;;;0.80;99.90;;;;;;5020247;28;20041;-76
2023/04/05 01:39:35;;;;;;;9.35;4.90;;;0.80;99.90;;;;;;5018923;28;20044;-78
2023/04/05 01:42:02;;;;;;;9.23;4.30;;;0.80;99.90;;;;;;5036886;28;20502;-77
2023/04/05 01:44:28;;;;;;;9.95;4.13;;;0.80;99.90;;;;;;5036459;28;20060;-77
2023/04/05 01:46:54;;;;;;;9.48;4.38;;;0.80;99.90;;;;;;5053924;28;20052;-77
2023/04/05 01:49:20;;;;;;;9.32;4.35;;;0.70;99.90;;;;;;5034349;28;20033;-77
2023/04/05 01:51:46;;;;;;;8.52;4.03;;;0.70;99.90;;;;;;5036684;28;20122;-77
2023/04/05 01:54:11;;;;;;;8.38;4.53;;;0.70;99.90;;;;;;5035601;28;20083;-77
2023/04/05 01:56:37;;;;;;;10.27;4.88;;;0.70;99.90;;;;;;5018813;28;20130;-77
2023/04/05 01:59:03;;;;;;;8.73;4.18;;;0.60;99.90;;;;;;5035817;28;20037;-77
2023/04/05 02:01:28;;;;;;;12.00;5.22;;;0.60;99.90;;;;;;5035077;28;20037;-77
2023/04/05 02:03:54;;;;;;;9.50;5.35;;;0.60;99.90;;;;;;5036447;28;20029;-78
2023/04/05 02:06:21;;;;;;;9.98;4.55;;;0.60;99.90;;;;;;5019321;28;20073;-77
2023/04/05 02:08:46;;;;;;;8.68;4.60;;;0.60;99.90;;;;;;5035825;28;20495;-78
2023/04/05 02:11:12;;;;;;;9.65;4.30;;;0.50;99.90;;;;;;5053898;28;20129;-77
2023/04/05 02:13:37;;;;;;;8.15;4.55;;;0.50;99.90;;;;;;5019315;28;20127;-78
2023/04/05 02:16:03;;;;;;;9.88;5.03;;;0.50;99.90;;;;;;5035290;28;20120;-77
2023/04/05 02:18:30;;;;;;;8.50;4.68;;;0.50;99.90;;;;;;5053293;28;20076;-77
2023/04/05 02:21:03;;;;;;;11.55;6.90;;;0.50;99.90;;;;;;5036111;28;20051;-78
2023/04/05 02:23:30;;;;;;;8.50;4.90;;;0.40;99.90;;;;;;5018520;28;20040;-77
2023/04/05 02:25:56;;;;;;;8.65;4.85;;;0.40;99.90;;;;;;5003384;28;20390;-77
2023/04/05 02:28:22;;;;;;;9.55;5.28;;;0.40;99.90;;;;;;4998718;28;20051;-77
2023/04/05 02:30:48;;;;;;;8.02;4.55;;;0.40;99.90;;;;;;5016184;28;20549;-77
2023/04/05 02:33:14;;;;;;;9.27;4.57;;;0.40;99.90;;;;;;5015859;28;20486;-77
2023/04/05 02:35:40;;;;;;;9.73;4.97;;;0.40;99.90;;;;;;4999110;28;20091;-77
2023/04/05 02:38:06;;;;;;;7.70;4.03;;;0.40;99.90;;;;;;5015828;28;20049;-77
2023/04/05 02:40:32;;;;;;;8.73;4.45;;;0.40;99.90;;;;;;5033347;28;20561;-77
2023/04/05 02:42:57;;;;;;;12.60;5.05;;;0.40;99.90;;;;;;5031077;28;20402;-78
2023/04/05 02:45:23;;;;;;;9.35;4.78;;;0.40;99.90;;;;;;5018697;28;20041;-78
2023/04/05 02:47:49;;;;;;;8.82;4.68;;;0.30;99.90;;;;;;5047986;28;20108;-78
2023/04/05 02:50:19;;;;;;;9.80;4.82;;;0.30;99.90;;;;;;5034522;28;20036;-77
2023/04/05 02:52:54;;;;;;;9.35;4.90;;;0.30;99.90;;;;;;5035113;28;20041;-77
2023/04/05 02:55:19;;;;;;;10.18;5.00;;;0.30;99.90;;;;;;5050847;28;20110;-77
2023/04/05 02:57:45;;;;;;;7.90;4.40;;;0.30;99.90;;;;;;4998701;28;20042;-77
2023/04/05 03:00:12;;;;;;;10.20;4.55;;;0.30;99.90;;;;;;5015464;28;20045;-77
2023/04/05 03:02:38;;;;;;;8.70;5.07;;;0.30;99.90;;;;;;5033271;28;20041;-77
2023/04/05 03:05:05;;;;;;;11.65;4.90;;;0.20;99.90;;;;;;5030728;28;20037;-77
2023/04/05 03:07:32;;;;;;;9.45;4.85;;;0.20;99.90;;;;;;4998467;28;20041;-77
2023/04/05 03:09:58;;;;;;;10.25;5.13;;;0.20;99.90;;;;;;5015328;28;20096;-77
2023/04/05 03:12:24;;;;;;;10.48;5.38;;;0.30;99.90;;;;;;5014020;28;20077;-77
2023/04/05 03:14:50;;;;;;;8.63;4.47;;;0.20;99.90;;;;;;5015138;28;20041;-77
2023/04/05 03:17:16;;;;;;;10.70;5.05;;;0.20;99.90;;;;;;5014519;28;20064;-77
2023/04/05 03:19:41;;;;;;;9.18;4.70;;;0.20;99.90;;;;;;5014349;28;20037;-77
2023/04/05 03:22:07;;;;;;;8.20;4.60;;;0.10;99.90;;;;;;5014823;28;20034;-77
2023/04/05 03:24:33;;;;;;;8.27;4.60;;;0.10;99.90;;;;;;5014961;28;20041;-77
2023/04/05 03:27:04;;;;;;;9.80;5.13;;;0.10;99.90;;;;;;5014422;28;20042;-76
2023/04/05 03:29:30;;;;;;;11.95;5.85;;;0.10;99.90;;;;;;5033788;28;20048;-76
2023/04/05 03:31:58;;;;;;;11.35;5.95;;;0.10;99.90;;;;;;5033954;28;20044;-77
2023/04/05 03:34:27;;;;;;;9.05;5.35;;;0.10;99.90;;;;;;5017913;28;20370;-77
2023/04/05 03:36:53;;;;;;;9.55;4.70;;;0.00;99.90;;;;;;5052503;28;20048;-76
2023/04/05 03:39:19;;;;;;;9.43;5.40;;;0.00;99.90;;;;;;5016975;28;20180;-77
2023/04/05 03:41:45;;;;;;;12.20;5.90;;;0.00;99.90;;;;;;5052400;28;20064;-78
2023/04/05 03:44:11;;;;;;;12.60;5.55;;;0.00;99.90;;;;;;5033700;28;20182;-78
2023/04/05 03:46:36;;;;;;;11.13;5.80;;;0.00;99.90;;;;;;5033665;28;20128;-77
2023/04/05 03:49:02;;;;;;;8.75;5.20;;;0.00;99.90;;;;;;5034285;28;20048;-77
2023/04/05 03:51:28;;;;;;;10.40;5.97;;;0.00;99.90;;;;;;5034624;28;20040;-78
2023/04/05 03:53:54;;;;;;;10.32;5.78;;;0.00;99.90;;;;;;5019560;28;20505;-78
2023/04/05 03:56:20;;;;;;;11.52;5.90;;;0.00;99.90;;;;;;5014035;28;20041;-77
2023/04/05 03:58:46;;;;;;;10.57;6.22;;;0.00;99.90;;;;;;5032016;28;20048;-78
2023/04/05 04:01:12;;;;;;;10.77;5.65;;;0.00;99.90;;;;;;5013505;28;20154;-77
2023/04/05 04:03:38;;;;;;;9.63;5.18;;;0.00;99.90;;;;;;5032154;28;20434;-78
2023/04/05 04:06:05;;;;;;;13.15;5.13;;;0.00;99.90;;;;;;5014168;28;20037;-77
2023/04/05 04:08:31;;;;;;;9.55;5.50;;;-0.10;99.90;;;;;;5013902;28;20045;-77
2023/04/05 04:10:57;;;;;;;10.02;5.13;;;-0.10;99.90;;;;;;5014372;28;20048;-78
2023/04/05 04:13:22;;;;;;;9.73;5.50;;;-0.10;99.90;;;;;;5013842;28;20128;-78
2023/04/05 04:15:48;;;;;;;11.82;6.43;;;-0.10;99.90;;;;;;5013748;28;20079;-78
2023/04/05 04:18:14;;;;;;;8.32;5.15;;;-0.10;99.90;;;;;;5014258;28;20469;-78
2023/04/05 04:20:40;;;;;;;9.93;5.50;;;-0.20;99.90;;;;;;5017538;28;20391;-78
2023/04/05 04:23:08;;;;;;;10.00;5.45;;;-0.20;99.90;;;;;;5017495;28;20079;-78
2023/04/05 04:25:35;;;;;;;9.02;4.90;;;-0.20;99.90;;;;;;5001820;28;20049;-78
2023/04/05 04:28:02;;;;;;;8.90;4.97;;;-0.20;99.90;;;;;;5017283;28;20045;-77
2023/04/05 04:30:28;;;;;;;16.15;5.82;;;-0.20;99.90;;;;;;5036004;28;20048;-78
2023/04/05 04:32:54;;;;;;;11.82;5.45;;;-0.20;99.90;;;;;;5018124;28;20131;-61
2023/04/05 04:35:25;;;;;;;10.75;5.35;;;-0.30;99.90;;;;;;5016942;28;20052;-62
2023/04/05 04:37:54;;;;;;;12.00;4.88;;;-0.20;99.90;;;;;;5017816;28;20120;-62
2023/04/05 04:40:21;;;;;;;8.75;5.15;;;-0.30;99.90;;;;;;5017391;28;20042;-61
2023/04/05 04:42:48;;;;;;;8.63;4.85;;;-0.30;99.90;;;;;;5017335;28;20057;-61
2023/04/05 04:45:17;;;;;;;9.40;4.55;;;-0.30;99.90;;;;;;5035228;28;20482;-61
2023/04/05 04:47:47;;;;;;;8.93;5.38;;;-0.30;99.90;;;;;;5020364;28;20419;-61
2023/04/05 04:50:14;;;;;;;7.80;4.05;;;-0.30;99.90;;;;;;5054686;28;20036;-61
2023/04/05 04:52:41;;;;;;;9.77;4.97;;;-0.30;99.90;;;;;;5037521;28;20489;-61
2023/04/05 04:55:13;;;;;;;9.52;4.93;;;-0.30;99.90;;;;;;5037274;28;20036;-62
2023/04/05 04:57:40;;;;;;;12.40;4.88;;;-0.40;99.90;;;;;;5019879;28;20045;-62
2023/04/05 05:00:14;;;;;;;10.32;5.40;;;-0.30;99.90;;;;;;5055172;28;20069;-62
2023/04/05 05:02:42;;;;;;;9.07;5.07;;;-0.30;99.90;;;;;;5033175;28;20046;-61
2023/04/05 05:05:09;;;;;;;11.52;5.57;;;-0.30;99.90;;;;;;5034258;28;20049;-61
2023/04/05 05:07:35;;;;;;;9.27;4.70;;;-0.40;99.90;;;;;;5034912;28;20045;-62
2023/04/05 05:10:01;;;;;;;11.95;5.43;;;-0.30;99.90;;;;;;5018576;28;20053;-61
2023/04/05 05:12:28;;;;;;;11.25;5.05;;;-0.30;99.90;;;;;;4999799;28;20099;-61
2023/04/05 05:14:54;;;;;;;10.18;4.75;;;-0.30;99.90;;;;;;5035232;28;20048;-61
2023/04/05 05:17:20;;;;;;;10.32;5.15;;;-0.40;99.90;;;;;;5033903;28;20879;-62
2023/04/05 05:19:45;;;;;;;10.57;5.38;;;-0.40;99.90;;;;;;5035049;28;20076;-61
2023/04/05 05:22:11;;;;;;;7.82;4.78;;;-0.40;99.90;;;;;;5016941;28;20483;-62
2023/04/05 05:24:36;;;;;;;10.95;5.32;;;-0.40;99.90;;;;;;5021938;28;20037;-61
2023/04/05 05:27:02;;;;;;;10.52;5.78;;;-0.30;99.90;;;;;;5054524;28;20123;-61
2023/04/05 05:29:28;;;;;;;10.52;5.65;;;-0.40;99.90;;;;;;5054348;28;20045;-61
2023/04/05 05:31:54;;;;;;;11.80;5.85;;;-0.30;99.90;;;;;;5035252;28;20037;-61
2023/04/05 05:34:20;;;;;;;11.13;5.75;;;-0.30;99.90;;;;;;5032040;28;20046;-61
2023/04/05 05:36:46;;;;;;;11.07;5.88;;;-0.30;99.90;;;;;;5034635;28;20125;-61
2023/04/05 05:39:12;;;;;;;12.45;6.10;;;-0.30;99.90;;;;;;5015958;28;20128;-62
2023/04/05 05:41:37;;;;;;;11.52;6.00;;;-0.30;99.90;;;;;;5034263;28;20037;-61
2023/04/05 05:44:04;;;;;;;11.35;6.45;;;-0.20;99.90;;;;;;5016567;28;20099;-61
2023/04/05 05:46:30;;;;;;;13.82;6.95;;;-0.20;99.90;;;;;;4999586;28;20509;-61
2023/04/05 05:48:55;;;;;;;13.98;7.57;;;-0.20;99.90;;;;;;5016669;28;20041;-62
2023/04/05 05:51:21;;;;;;;19.85;9.02;;;-0.10;99.90;;;;;;5016479;28;20045;-61
2023/04/05 05:53:47;;;;;;;14.43;9.77;;;-0.10;99.90;;;;;;5033631;28;20051;-61
2023/04/05 05:56:13;;;;;;;18.10;10.73;;;0.00;99.90;;;;;;5034256;28;20100;-61
2023/04/05 05:58:39;;;;;;;13.95;7.55;;;0.00;99.90;;;;;;5016334;28;20479;-61
2023/04/05 06:01:10;;;;;;;12.27;6.80;;;0.10;99.90;;;;;;5015719;28;20120;-62
2023/04/05 06:03:36;;;;;;;18.25;8.40;;;0.10;99.90;;;;;;4999884;28;20501;-62
2023/04/05 06:06:04;;;;;;;14.95;8.77;;;0.20;99.90;;;;;;5016488;28;20410;-62
2023/04/05 06:08:30;;;;;;;14.40;7.47;;;0.20;99.90;;;;;;5015325;28;20482;-61
2023/04/05 06:10:56;;;;;;;14.60;8.10;;;0.30;99.90;;;;;;5016578;28;20072;-62
2023/04/05 06:13:22;;;;;;;13.77;8.65;;;0.40;99.90;;;;;;5015551;28;20103;-61
2023/04/05 06:15:48;;;;;;;14.88;8.07;;;0.40;99.90;;;;;;5015952;28;20071;-62
2023/04/05 06:18:13;;;;;;;15.27;8.70;;;0.50;99.90;;;;;;5033695;28;20116;-61
2023/04/05 06:20:39;;;;;;;21.52;9.20;;;0.60;99.90;;;;;;5033115;28;20037;-61
2023/04/05 06:23:06;;;;;;;17.13;9.32;;;0.70;99.90;;;;;;5033650;28;20033;-61
2023/04/05 06:25:32;;;;;;;17.15;9.10;;;0.80;99.90;;;;;;5016039;28;20037;-62
2023/04/05 06:27:57;;;;;;;15.98;9.35;;;0.90;99.90;;;;;;5031525;28;20531;-62
2023/04/05 06:30:23;;;;;;;17.00;10.38;;;1.10;99.90;;;;;;5035601;28;20127;-61
2023/04/05 06:32:53;;;;;;;18.25;10.93;;;1.20;99.90;;;;;;5035861;28;20099;-62
2023/04/05 06:35:20;;;;;;;18.13;9.90;;;1.30;99.90;;;;;;5034809;28;20457;-61
2023/04/05 06:37:45;;;;;;;18.75;9.40;;;1.40;99.90;;;;;;5035554;28;20512;-61
2023/04/05 06:40:11;;;;;;;16.35;9.75;;;1.60;99.90;;;;;;5053320;28;20041;-62
2023/04/05 06:42:37;;;;;;;16.85;9.57;;;1.70;99.90;;;;;;5033904;28;20049;-61
2023/04/05 06:45:04;;;;;;;16.27;9.57;;;1.80;99.90;;;;;;5053162;28;20422;-62
2023/04/05 06:47:39;;;;;;;14.43;9.02;;;1.90;99.90;;;;;;5035225;28;20124;-62
2023/04/05 06:50:07;;;;;;;14.80;8.82;;;2.00;99.90;;;;;;5034217;28;20040;-62
2023/04/05 06:52:34;;;;;;;15.70;10.02;;;2.10;99.90;;;;;;5035166;28;20048;-61
2023/04/05 06:55:00;;;;;;;17.88;9.90;;;2.20;99.90;;;;;;5018709;28;20390;-61
2023/04/05 06:57:26;;;;;;;14.77;10.10;;;2.30;99.90;;;;;;5052030;28;20379;-62
2023/04/05 06:59:52;;;;;;;15.95;9.55;;;2.40;99.90;;;;;;5035292;28;20047;-61
2023/04/05 07:02:19;;;;;;;14.38;9.93;;;2.40;99.90;;;;;;5034677;28;20044;-61
2023/04/05 07:04:45;;;;;;;17.17;10.02;;;2.50;99.90;;;;;;5052164;28;20040;-61
2023/04/05 07:07:11;;;;;;;18.20;10.25;;;2.60;99.90;;;;;;5034749;28;20533;-61
2023/04/05 07:09:37;;;;;;;18.15;11.00;;;2.70;99.90;;;;;;5034462;28;20124;-61
2023/04/05 07:12:04;;;;;;;13.52;8.88;;;2.80;99.90;;;;;;5017822;28;20037;-61
2023/04/05 07:14:32;;;;;;;16.20;9.65;;;2.90;99.90;;;;;;5026221;28;20033;-62
2023/04/05 07:16:57;;;;;;;15.15;9.60;;;3.00;99.90;;;;;;5014622;28;20383;-62
2023/04/05 07:19:23;;;;;;;13.95;9.82;;;3.10;99.90;;;;;;5001517;28;20035;-62
2023/04/05 07:21:49;;;;;;;18.15;10.07;;;3.20;99.90;;;;;;5044717;28;20036;-61
2023/04/05 07:24:15;;;;;;;17.13;10.07;;;3.30;99.90;;;;;;5032385;28;20048;-61
2023/04/05 07:26:41;;;;;;;20.00;10.25;;;3.30;99.90;;;;;;5002520;28;20041;-61
2023/04/05 07:29:08;;;;;;;18.25;9.40;;;3.40;99.90;;;;;;5021253;28;20099;-61
2023/04/05 07:31:34;;;;;;;15.77;9.55;;;3.40;99.90;;;;;;5029914;28;20043;-61
2023/04/05 07:34:00;;;;;;;13.80;9.38;;;3.50;99.90;;;;;;5015835;28;20439;-61
2023/04/05 07:36:27;;;;;;;13.15;9.20;;;3.60;99.90;;;;;;5031449;28;20116;-61
2023/04/05 07:38:53;;;;;;;15.50;9.98;;;3.60;99.90;;;;;;5019580;28;20046;-62
2023/04/05 07:41:19;;;;;;;14.02;9.32;;;3.70;99.90;;;;;;5017059;28;20045;-62
2023/04/05 07:43:45;;;;;;;13.23;8.85;;;3.80;99.90;;;;;;5030131;28;20049;-61
2023/04/05 07:46:11;;;;;;;17.23;10.35;;;3.90;99.90;;;;;;5011554;28;20045;-61
2023/04/05 07:48:37;;;;;;;16.52;9.23;;;4.10;99.90;;;;;;5025121;28;20046;-62
2023/04/05 07:51:04;;;;;;;12.68;8.10;;;4.20;99.90;;;;;;5007040;28;20044;-61
2023/04/05 07:53:30;;;;;;;15.00;9.10;;;4.30;99.90;;;;;;5010298;28;20136;-62
2023/04/05 07:55:56;;;;;;;14.98;9.57;;;4.40;99.90;;;;;;5011523;28;20133;-61
2023/04/05 07:58:22;;;;;;;15.25;10.68;;;4.40;99.90;;;;;;5028786;28;20413;-62
2023/04/05 08:00:48;;;;;;;15.35;10.23;;;4.50;99.90;;;;;;5028756;28;20045;-62
2023/04/05 08:03:14;;;;;;;16.60;9.82;;;4.60;99.90;;;;;;5011288;28;20391;-62
2023/04/05 08:05:40;;;;;;;18.38;10.63;;;4.70;99.90;;;;;;5011560;28;20473;-62
2023/04/05 08:08:09;;;;;;;23.48;14.23;;;4.80;99.90;;;;;;5046680;28;20439;-62
2023/04/05 08:10:39;;;;;;;15.00;9.38;;;4.90;99.90;;;;;;5030929;28;20083;-62
2023/04/05 08:13:05;;;;;;;15.13;9.20;;;5.00;99.90;;;;;;5029897;28;20048;-61
2023/04/05 08:15:35;;;;;;;23.63;13.82;;;5.10;99.90;;;;;;5049541;28;20084;-62
2023/04/05 08:18:01;;;;;;;13.60;8.95;;;5.10;99.90;;;;;;5048896;28;20048;-62
2023/04/05 08:20:26;;;;;;;13.55;8.48;;;5.20;99.90;;;;;;5030359;28;20041;-62
2023/04/05 08:22:52;;;;;;;15.43;9.27;;;5.20;99.90;;;;;;5026341;28;20408;-61
2023/04/05 08:25:18;;;;;;;16.63;8.75;;;5.30;99.90;;;;;;5003092;28;20044;-61
2023/04/05 08:27:44;;;;;;;20.85;12.25;;;5.40;99.90;;;;;;5031124;28;20091;-60
2023/04/05 08:30:10;;;;;;;12.82;8.45;;;5.50;99.90;;;;;;5031491;28;20041;-60
2023/04/05 08:32:36;;;;;;;19.77;10.10;;;5.50;99.90;;;;;;5029558;28;20041;-60
2023/04/05 08:35:02;;;;;;;13.55;8.90;;;5.70;99.90;;;;;;5000730;28;20079;-60
2023/04/05 08:37:27;;;;;;;19.85;10.02;;;5.80;99.90;;;;;;5026731;28;20037;-60
2023/04/05 08:39:54;;;;;;;14.18;9.73;;;5.90;99.90;;;;;;5045778;28;20033;-61
2023/04/05 08:42:33;;;;;;;19.42;9.63;;;5.90;99.90;;;;;;5013868;28;20099;-74
2023/04/05 08:45:03;;;;;;;12.23;8.18;;;6.00;99.90;;;;;;5041683;28;20041;-74
2023/04/05 08:47:30;;;;;;;11.48;8.05;;;6.10;99.90;;;;;;5026510;28;20060;-75
2023/04/05 08:49:56;;;;;;;12.32;7.20;;;6.20;99.90;;;;;;5029541;28;20052;-75
2023/04/05 08:52:24;;;;;;;11.23;7.47;;;6.30;99.90;;;;;;5031149;28;20053;-74
2023/04/05 08:54:53;;;;;;;11.73;7.30;;;6.40;99.90;;;;;;5011656;28;20409;-75
2023/04/05 08:57:28;;;;;;;10.60;6.78;;;6.50;99.90;;;;;;5026525;28;20041;-75
2023/04/05 08:59:55;;;;;;;15.13;9.13;;;6.60;99.90;;;;;;5025132;28;20556;-74
2023/04/05 09:02:23;;;;;;;10.48;6.57;;;6.60;99.90;;;;;;5009260;28;20040;-74
2023/04/05 09:04:50;;;;;;;10.50;6.90;;;6.70;99.90;;;;;;5010842;28;20041;-73
2023/04/05 09:07:17;;;;;;;11.10;6.50;;;6.70;99.90;;;;;;5015969;28;20095;-75
2023/04/05 09:09:50;;;;;;;18.02;7.60;;;6.90;99.90;;;;;;5038603;28;20045;-73
2023/04/05 09:12:16;;;;;;;12.10;6.55;;;6.90;99.90;;;;;;5027852;28;20045;-72
2023/04/05 09:14:42;;;;;;;15.35;7.00;;;6.90;99.90;;;;;;5030715;28;20059;-71
2023/04/05 09:17:09;;;;;;;10.45;7.38;;;7.00;99.90;;;;;;5036035;28;20490;-70
2023/04/05 09:19:35;;;;;;;12.60;6.95;;;7.00;99.90;;;;;;5018445;28;20490;-71
2023/04/05 09:22:03;;;;;;;10.98;7.65;;;7.00;99.90;;;;;;5055155;28;20041;-71
2023/04/05 09:24:35;;;;;;;11.93;7.45;;;7.10;99.90;;;;;;5019801;28;20455;-70
2023/04/05 09:27:18;;;;;;;11.35;7.90;;;7.20;99.90;;;;;;5034622;28;20037;-68
2023/04/05 09:29:48;;;;;;;10.68;7.38;;;7.30;99.90;;;;;;5043702;28;20502;-75
2023/04/05 09:32:14;;;;;;;9.82;6.20;;;7.40;99.90;;;;;;5016466;28;20037;-75
2023/04/05 09:34:41;;;;;;;14.35;8.48;;;7.50;99.90;;;;;;5017001;28;20088;-75
2023/04/05 09:37:18;;;;;;;12.75;8.77;;;7.60;99.90;;;;;;5016813;28;20037;-75
2023/04/05 09:39:46;;;;;;;10.02;6.95;;;7.70;99.90;;;;;;5034100;28;20053;-75
2023/04/05 09:42:13;;;;;;;15.25;7.90;;;7.70;99.90;;;;;;5016722;28;20124;-74
2023/04/05 09:44:54;;;;;;;10.88;7.85;;;7.70;99.90;;;;;;5033512;28;20042;-75
2023/04/05 09:47:23;;;;;;;11.35;8.32;;;7.70;99.90;;;;;;5000272;28;20059;-75
2023/04/05 09:49:49;;;;;;;11.00;7.90;;;7.70;99.90;;;;;;5016957;28;20048;-75
2023/04/05 09:52:21;;;;;;;12.93;8.23;;;7.70;99.90;;;;;;5015696;28;20398;-75
2023/04/05 09:54:48;;;;;;;12.70;7.95;;;7.70;99.90;;;;;;5034480;28;20045;-75
2023/04/05 09:57:16;;;;;;;14.60;7.20;;;7.80;99.90;;;;;;5034020;28;20124;-74
2023/04/05 09:59:42;;;;;;;11.70;7.05;;;7.80;99.90;;;;;;5033791;28;20402;-74
2023/04/05 10:02:10;;;;;;;10.65;6.75;;;7.90;99.90;;;;;;5034136;28;20034;-75
2023/04/05 10:04:40;;;;;;;10.85;6.93;;;7.90;99.10;;;;;;5016424;28;20091;-75
2023/04/05 10:07:12;;;;;;;11.18;8.00;;;8.00;99.50;;;;;;4999492;28;20052;-75
2023/04/05 10:09:40;;;;;;;15.20;9.55;;;8.00;98.60;;;;;;4999993;28;20049;-75
2023/04/05 10:12:07;;;;;;;12.20;7.50;;;7.90;98.70;;;;;;5016155;28;20044;-75
2023/04/05 10:14:34;;;;;;;10.75;6.68;;;8.00;98.70;;;;;;5015311;28;20041;-75
2023/04/05 10:17:06;;;;;;;10.98;6.93;;;8.00;98.90;;;;;;5033347;28;20049;-75
2023/04/05 10:20:10;;;;;;;12.05;7.65;;;8.20;98.50;;;;;;5033751;28;20127;-75
2023/04/05 10:22:58;;;;;;;12.35;6.75;;;8.30;97.50;;;;;;5001142;28;20050;-74
2023/04/05 10:25:46;;;;;;;13.07;7.18;;;8.50;98.10;;;;;;5015691;28;20037;-75
2023/04/05 10:28:30;;;;;;;11.82;6.72;;;8.50;96.30;;;;;;5015137;28;20056;-75
2023/04/05 10:31:37;;;;;;;13.10;7.05;;;8.60;95.90;;;;;;5015953;28;20084;-75
2023/04/05 10:34:11;;;;;;;13.60;6.60;;;8.60;95.20;;;;;;5015060;28;20553;-75
2023/04/05 10:37:00;;;;;;;9.15;5.85;;;8.70;96.10;;;;;;5015723;28;20057;-75
2023/04/05 10:39:46;;;;;;;11.35;5.60;;;8.90;95.40;;;;;;5015792;28;20092;-75
2023/04/05 10:42:26;;;;;;;10.43;6.05;;;9.00;93.90;;;;;;5032467;28;20050;-74
2023/04/05 10:44:58;;;;;;;11.55;6.63;;;9.10;93.90;;;;;;5033533;28;20038;-75
2023/04/05 10:47:30;;;;;;;9.80;5.95;;;9.10;93.60;;;;;;5015206;28;20038;-75
2023/04/05 10:50:02;;;;;;;10.18;6.03;;;9.20;93.70;;;;;;5015179;28;20490;-75
2023/04/05 10:52:28;;;;;;;11.23;5.90;;;9.20;92.50;;;;;;5033063;28;20498;-75
2023/04/05 10:54:56;;;;;;;10.63;6.18;;;9.30;92.10;;;;;;5032693;28;20375;-74
2023/04/05 10:57:22;;;;;;;8.85;5.85;;;9.30;91.80;;;;;;5014953;28;20045;-74
2023/04/05 10:59:50;;;;;;;8.60;5.78;;;9.40;91.30;;;;;;5015747;28;20077;-74
2023/04/05 11:02:18;;;;;;;10.98;6.75;;;9.40;91.40;;;;;;5014233;28;20033;-74
2023/04/05 11:04:43;;;;;;;8.98;5.95;;;9.40;91.60;;;;;;5015512;28;20068;-74
2023/04/05 11:07:19;;;;;;;11.07;6.53;;;9.50;92.10;;;;;;5014932;28;20033;-75
2023/04/05 11:10:12;;;;;;;8.07;5.28;;;9.60;92.60;;;;;;5032417;28;20045;-75
2023/04/05 11:12:55;;;;;;;10.73;5.70;;;9.70;91.10;;;;;;5014959;28;20041;-75
2023/04/05 11:15:29;;;;;;;9.13;5.35;;;9.80;90.60;;;;;;5014900;28;20064;-75
2023/04/05 11:18:16;;;;;;;7.93;5.10;;;9.80;90.40;;;;;;5048083;28;20045;-71
2023/04/05 11:20:56;;;;;;;9.52;5.70;;;9.80;86.40;;;;;;5020186;28;20042;-72
2023/04/05 11:23:24;;;;;;;8.55;5.53;;;9.80;89.00;;;;;;5015477;28;20086;-72
2023/04/05 11:26:02;;;;;;;10.00;6.05;;;9.90;89.10;;;;;;5033293;28;20078;-72
2023/04/05 11:28:38;;;;;;;10.23;6.25;;;9.80;84.70;;;;;;5045667;28;20044;-72
2023/04/05 11:31:14;;;;;;;10.60;6.00;;;9.80;86.70;;;;;;5013595;28;20135;-71
2023/04/05 11:33:49;;;;;;;9.10;5.25;;;9.90;86.60;;;;;;5032710;28;20375;-70
2023/04/05 11:36:34;;;;;;;8.95;5.47;;;9.90;86.70;;;;;;5001630;28;20102;-70
2023/04/05 11:39:20;;;;;;;8.63;6.13;;;9.90;86.50;;;;;;5036645;28;20510;-70
2023/04/05 11:42:03;;;;;;;9.75;5.78;;;10.00;86.30;;;;;;5021047;28;20045;-70
2023/04/05 11:44:51;;;;;;;9.50;5.32;;;10.00;86.50;;;;;;5044940;28;20063;-70
2023/04/05 11:47:20;;;;;;;8.75;5.55;;;10.00;83.90;;;;;;5030664;28;20045;-70
2023/04/05 11:49:49;;;;;;;8.23;4.72;;;9.90;84.70;;;;;;5012998;28;20060;-70
2023/04/05 11:52:17;;;;;;;8.73;5.28;;;10.00;85.50;;;;;;4994508;28;20482;-70
2023/04/05 11:54:47;;;;;;;9.30;6.03;;;10.10;83.70;;;;;;5029800;28;20501;-70
2023/04/05 11:57:23;;;;;;;11.65;5.95;;;10.20;83.40;;;;;;5014747;28;20550;-70
2023/04/05 11:59:50;;;;;;;8.23;5.15;;;10.30;84.10;;;;;;5017393;28;20041;-70
2023/04/05 12:02:16;;;;;;;7.28;4.50;;;10.30;82.70;;;;;;5014441;28;20123;-70
2023/04/05 12:04:42;;;;;;;7.97;4.85;;;10.30;82.10;;;;;;5031739;28;20068;-70
2023/04/05 12:07:13;;;;;;;9.50;4.82;;;10.40;81.00;;;;;;5028405;28;20429;-70
2023/04/05 12:09:57;;;;;;;8.48;5.55;;;10.40;79.90;;;;;;5002368;28;20040;-70
2023/04/05 12:12:23;;;;;;;11.85;6.13;;;10.40;79.90;;;;;;5020265;28;20033;-70
2023/04/05 12:14:48;;;;;;;9.55;5.40;;;10.60;81.00;;;;;;5026617;28;20509;-70
2023/04/05 12:17:14;;;;;;;9.75;6.05;;;10.60;80.00;;;;;;5019973;28;20037;-70
2023/04/05 12:19:41;;;;;;;7.90;5.38;;;10.60;78.10;;;;;;5034835;28;20045;-71
2023/04/05 12:22:07;;;;;;;7.35;4.85;;;10.60;77.70;;;;;;5029347;28;20045;-70
2023/04/05 12:24:34;;;;;;;10.75;5.82;;;10.70;78.90;;;;;;5028692;28;20467;-70
2023/04/05 12:27:00;;;;;;;10.80;5.10;;;10.70;78.60;;;;;;5012581;28;20479;-70
2023/04/05 12:29:25;;;;;;;8.27;4.75;;;10.70;75.90;;;;;;5027570;28;20045;-71
2023/04/05 12:31:51;;;;;;;9.25;4.68;;;10.70;75.30;;;;;;5031443;28;20056;-71
2023/04/05 12:34:26;;;;;;;9.90;4.88;;;10.80;75.60;;;;;;5027073;28;20043;-71
2023/04/05 12:36:52;;;;;;;8.07;4.95;;;10.90;75.70;;;;;;5045115;28;20494;-71
2023/04/05 13:07:37;;;;;;;8.43;5.10;;;11.40;73.20;;;;;;5000005;28;20514;-62
2023/04/05 13:10:03;;;;;;;11.23;5.63;;;11.50;73.20;;;;;;4992129;28;20054;-62
2023/04/05 13:12:28;;;;;;;10.23;5.82;;;11.60;72.80;;;;;;4992611;28;20110;-62
2023/04/05 13:14:54;;;;;;;7.85;4.63;;;11.60;71.80;;;;;;5015337;28;20049;-62
2023/04/05 13:17:20;;;;;;;8.57;5.32;;;11.70;71.20;;;;;;5030270;28;20395;-62
2023/04/05 13:19:45;;;;;;;7.55;5.00;;;11.70;70.90;;;;;;5042962;28;20036;-62
2023/04/05 13:22:11;;;;;;;7.70;4.72;;;11.60;71.20;;;;;;5024558;28;20094;-62
2023/04/05 13:24:37;;;;;;;9.13;5.18;;;11.60;70.60;;;;;;5016977;28;20054;-62